PAL1141 RPLL-RPVI
Flight info
| Callsign | PAL1141 |
|---|---|
| Flight time | 0h 49m |
| Altitude | 31000 |
| Route | VERDE2R VERDE A461 SAJ W3 BEDER BEDER1S |
| Aircraft | A321/M-SDE3FGHIRWY/LB1 |
Departure
| Time | 2026-05-05 12:39 |
|---|---|
| Airport | Ninoy Aquino International Airport (RPLL) |
Arrival
| Time | 2026-05-05 13:29 |
|---|---|
| Airport | Iloilo International Airport (RPVI) |
| Time | Latitude | Longitude | Altitude | Speed | Heading |
|---|---|---|---|---|---|
| 2026-05-05 12:19 | 14.50376 | 121.00388 | 82 ft | 0 kts | 50° |
| 2026-05-05 12:29 | 14.50371 | 121.00381 | 82 ft | 2 kts | 50° |
| 2026-05-05 12:29 | 14.50361 | 121.00369 | 82 ft | 2 kts | 50° |
| 2026-05-05 12:29 | 14.50352 | 121.00357 | 82 ft | 2 kts | 50° |
| 2026-05-05 12:29 | 14.50342 | 121.00345 | 82 ft | 2 kts | 50° |
| 2026-05-05 12:30 | 14.50332 | 121.00333 | 82 ft | 2 kts | 62° |
| 2026-05-05 12:30 | 14.50329 | 121.00318 | 82 ft | 2 kts | 92° |
| 2026-05-05 12:30 | 14.50332 | 121.00303 | 82 ft | 2 kts | 119° |
| 2026-05-05 12:30 | 14.50342 | 121.00291 | 82 ft | 2 kts | 146° |
| 2026-05-05 12:31 | 14.50356 | 121.00285 | 82 ft | 2 kts | 173° |
| 2026-05-05 12:31 | 14.50364 | 121.00285 | 82 ft | 1 kts | 189° |
| 2026-05-05 12:31 | 14.50369 | 121.00285 | 82 ft | 0 kts | 185° |
| 2026-05-05 12:33 | 14.50366 | 121.00285 | 82 ft | 0 kts | 185° |
| 2026-05-05 12:34 | 14.50361 | 121.00285 | 82 ft | 1 kts | 185° |
| 2026-05-05 12:34 | 14.50339 | 121.00282 | 82 ft | 2 kts | 185° |
| 2026-05-05 12:34 | 14.50316 | 121.00280 | 82 ft | 3 kts | 185° |
| 2026-05-05 12:34 | 14.50286 | 121.00278 | 82 ft | 4 kts | 185° |
| 2026-05-05 12:35 | 14.50251 | 121.00283 | 82 ft | 6 kts | 154° |
| 2026-05-05 12:35 | 14.50197 | 121.00314 | 82 ft | 9 kts | 150° |
| 2026-05-05 12:35 | 14.50135 | 121.00333 | 82 ft | 9 kts | 203° |
| 2026-05-05 12:35 | 14.50117 | 121.00320 | 82 ft | 10 kts | 226° |
| 2026-05-05 12:36 | 14.49948 | 121.00021 | 82 ft | 9 kts | 240° |
| 2026-05-05 12:37 | 14.49911 | 120.99967 | 82 ft | 7 kts | 207° |
| 2026-05-05 12:37 | 14.49892 | 120.99963 | 82 ft | 0 kts | 180° |
| 2026-05-05 12:37 | 14.49870 | 120.99969 | 82 ft | 5 kts | 154° |
| 2026-05-05 12:37 | 14.49822 | 120.99996 | 82 ft | 9 kts | 147° |
| 2026-05-05 12:38 | 14.49810 | 121.00059 | 82 ft | 10 kts | 66° |
| 2026-05-05 12:38 | 14.49845 | 121.00124 | 82 ft | 10 kts | 60° |
| 2026-05-05 12:38 | 14.49952 | 121.00315 | 82 ft | 62 kts | 60° |
| 2026-05-05 12:38 | 14.50282 | 121.00907 | 82 ft | 125 kts | 60° |
| 2026-05-05 12:39 | 14.50806 | 121.01850 | 92 ft | 175 kts | 60° |
| 2026-05-05 12:39 | 14.51436 | 121.02957 | 583 ft | 179 kts | 62° |
| 2026-05-05 12:39 | 14.52084 | 121.04069 | 1178 ft | 183 kts | 60° |
| 2026-05-05 12:39 | 14.52697 | 121.05167 | 1897 ft | 176 kts | 62° |
| 2026-05-05 12:40 | 14.53282 | 121.06248 | 2386 ft | 171 kts | 62° |
| 2026-05-05 12:40 | 14.53869 | 121.07323 | 2709 ft | 172 kts | 62° |
| 2026-05-05 12:40 | 14.54466 | 121.08412 | 3044 ft | 173 kts | 62° |
| 2026-05-05 12:40 | 14.55041 | 121.09522 | 3312 ft | 180 kts | 71° |
| 2026-05-05 12:41 | 14.54999 | 121.10805 | 3509 ft | 189 kts | 117° |
| 2026-05-05 12:41 | 14.53970 | 121.11661 | 3733 ft | 201 kts | 163° |
| 2026-05-05 12:41 | 14.52518 | 121.11620 | 3990 ft | 214 kts | 189° |
| 2026-05-05 12:41 | 14.50997 | 121.11374 | 4248 ft | 227 kts | 185° |
| 2026-05-05 12:42 | 14.49345 | 121.11193 | 4453 ft | 245 kts | 184° |
| 2026-05-05 12:42 | 14.47588 | 121.11033 | 4724 ft | 262 kts | 183° |
| 2026-05-05 12:42 | 14.45684 | 121.10871 | 5061 ft | 277 kts | 183° |
| 2026-05-05 12:42 | 14.43757 | 121.10711 | 5643 ft | 282 kts | 183° |
| 2026-05-05 12:43 | 14.41775 | 121.10548 | 6335 ft | 284 kts | 183° |
| 2026-05-05 12:43 | 14.39788 | 121.10384 | 7020 ft | 287 kts | 182° |
| 2026-05-05 12:43 | 14.37811 | 121.10223 | 7665 ft | 289 kts | 182° |
| 2026-05-05 12:43 | 14.35784 | 121.10057 | 8321 ft | 291 kts | 182° |
| 2026-05-05 12:44 | 14.33747 | 121.09892 | 8976 ft | 294 kts | 182° |
| 2026-05-05 12:44 | 14.31702 | 121.09727 | 9577 ft | 296 kts | 182° |
| 2026-05-05 12:44 | 14.29628 | 121.09560 | 10149 ft | 299 kts | 182° |
| 2026-05-05 12:44 | 14.27511 | 121.09392 | 10523 ft | 311 kts | 182° |
| 2026-05-05 12:45 | 14.25312 | 121.09219 | 10790 ft | 325 kts | 182° |
| 2026-05-05 12:45 | 14.22989 | 121.09033 | 11061 ft | 338 kts | 182° |
| 2026-05-05 12:45 | 14.20596 | 121.08840 | 11509 ft | 344 kts | 182° |
| 2026-05-05 12:45 | 14.18210 | 121.08646 | 12048 ft | 346 kts | 182° |
| 2026-05-05 12:46 | 14.15804 | 121.08452 | 12574 ft | 348 kts | 182° |
| 2026-05-05 12:46 | 14.13367 | 121.08256 | 13074 ft | 351 kts | 182° |
| 2026-05-05 12:46 | 14.10929 | 121.08060 | 13556 ft | 353 kts | 183° |
| 2026-05-05 12:46 | 14.08463 | 121.07861 | 14034 ft | 356 kts | 182° |
| 2026-05-05 12:47 | 14.05961 | 121.07658 | 14500 ft | 358 kts | 183° |
| 2026-05-05 12:47 | 14.03449 | 121.07456 | 14953 ft | 361 kts | 183° |
| 2026-05-05 12:47 | 14.00919 | 121.07253 | 15396 ft | 363 kts | 183° |
| 2026-05-05 12:47 | 13.98401 | 121.07050 | 15830 ft | 366 kts | 183° |
| 2026-05-05 12:48 | 13.95839 | 121.06844 | 16260 ft | 368 kts | 183° |
| 2026-05-05 12:48 | 13.93291 | 121.06638 | 16675 ft | 370 kts | 183° |
| 2026-05-05 12:48 | 13.90703 | 121.06430 | 17085 ft | 372 kts | 183° |
| 2026-05-05 12:48 | 13.88278 | 121.06234 | 17462 ft | 374 kts | 183° |
| 2026-05-05 12:49 | 13.85648 | 121.06023 | 17869 ft | 376 kts | 183° |
| 2026-05-05 12:49 | 13.83024 | 121.05810 | 18276 ft | 378 kts | 183° |
| 2026-05-05 12:49 | 13.80399 | 121.05599 | 18674 ft | 379 kts | 183° |
| 2026-05-05 12:49 | 13.77766 | 121.05388 | 19058 ft | 381 kts | 183° |
| 2026-05-05 12:50 | 13.75107 | 121.05174 | 19429 ft | 383 kts | 183° |
| 2026-05-05 12:50 | 13.72424 | 121.04958 | 19813 ft | 385 kts | 183° |
| 2026-05-05 12:50 | 13.69765 | 121.04744 | 20169 ft | 387 kts | 183° |
| 2026-05-05 12:50 | 13.67053 | 121.04527 | 20511 ft | 389 kts | 183° |
| 2026-05-05 12:51 | 13.64338 | 121.04307 | 20856 ft | 391 kts | 183° |
| 2026-05-05 12:51 | 13.61612 | 121.04089 | 21198 ft | 393 kts | 184° |
| 2026-05-05 12:51 | 13.58855 | 121.03867 | 21531 ft | 394 kts | 184° |
| 2026-05-05 12:51 | 13.56118 | 121.03646 | 21863 ft | 396 kts | 184° |
| 2026-05-05 12:52 | 13.53346 | 121.03423 | 22199 ft | 397 kts | 184° |
| 2026-05-05 12:52 | 13.50601 | 121.03240 | 22513 ft | 399 kts | 181° |
| 2026-05-05 12:52 | 13.47780 | 121.03207 | 22836 ft | 400 kts | 179° |
| 2026-05-05 12:52 | 13.45007 | 121.03232 | 23147 ft | 402 kts | 179° |
| 2026-05-05 12:53 | 13.42167 | 121.03262 | 23456 ft | 403 kts | 179° |
| 2026-05-05 12:53 | 13.39355 | 121.03293 | 23760 ft | 405 kts | 179° |
| 2026-05-05 12:53 | 13.36534 | 121.03322 | 24062 ft | 407 kts | 179° |
| 2026-05-05 12:53 | 13.33701 | 121.03349 | 24354 ft | 409 kts | 179° |
| 2026-05-05 12:54 | 13.27966 | 121.03406 | 24952 ft | 411 kts | 179° |
| 2026-05-05 12:54 | 13.25108 | 121.03434 | 25244 ft | 413 kts | 179° |
| 2026-05-05 12:54 | 13.22195 | 121.03464 | 25545 ft | 414 kts | 179° |
| 2026-05-05 12:55 | 13.19321 | 121.03495 | 25832 ft | 415 kts | 179° |
| 2026-05-05 12:55 | 13.16418 | 121.03526 | 26101 ft | 417 kts | 179° |
| 2026-05-05 12:55 | 13.13496 | 121.03556 | 26361 ft | 419 kts | 179° |
| 2026-05-05 12:55 | 13.10574 | 121.03585 | 26619 ft | 421 kts | 179° |
| 2026-05-05 12:56 | 13.07604 | 121.03615 | 26868 ft | 423 kts | 179° |
| 2026-05-05 12:56 | 13.04656 | 121.03644 | 27129 ft | 424 kts | 179° |
| 2026-05-05 12:56 | 13.01714 | 121.03672 | 27364 ft | 426 kts | 180° |
| 2026-05-05 12:56 | 12.98712 | 121.03702 | 27602 ft | 428 kts | 180° |
| 2026-05-05 12:57 | 12.95741 | 121.03730 | 27837 ft | 430 kts | 179° |
| 2026-05-05 12:57 | 12.92700 | 121.03760 | 28081 ft | 431 kts | 179° |
| 2026-05-05 12:57 | 12.89698 | 121.03790 | 28317 ft | 433 kts | 179° |
| 2026-05-05 12:57 | 12.86744 | 121.03818 | 28560 ft | 434 kts | 180° |
| 2026-05-05 12:58 | 12.83670 | 121.03850 | 28909 ft | 432 kts | 180° |
| 2026-05-05 12:58 | 12.80756 | 121.03879 | 29254 ft | 431 kts | 180° |
| 2026-05-05 12:58 | 12.77747 | 121.03909 | 29553 ft | 431 kts | 180° |
| 2026-05-05 12:58 | 12.74743 | 121.03939 | 29800 ft | 432 kts | 180° |
| 2026-05-05 12:59 | 12.71735 | 121.03968 | 30027 ft | 433 kts | 180° |
| 2026-05-05 12:59 | 12.68686 | 121.03997 | 30266 ft | 434 kts | 180° |
| 2026-05-05 12:59 | 12.65656 | 121.04026 | 30496 ft | 435 kts | 180° |
| 2026-05-05 13:00 | 12.59599 | 121.04085 | 30922 ft | 438 kts | 180° |
| 2026-05-05 13:00 | 12.56526 | 121.04115 | 30940 ft | 439 kts | 180° |
| 2026-05-05 13:01 | 12.44293 | 121.04233 | 30914 ft | 439 kts | 180° |
| 2026-05-05 13:01 | 12.38236 | 121.05084 | 30910 ft | 441 kts | 164° |
| 2026-05-05 13:02 | 12.32685 | 121.07778 | 30910 ft | 443 kts | 146° |
| 2026-05-05 13:02 | 12.27996 | 121.11887 | 30909 ft | 444 kts | 137° |
| 2026-05-05 13:03 | 12.23500 | 121.16240 | 30909 ft | 443 kts | 137° |
| 2026-05-05 13:03 | 12.19013 | 121.20564 | 30907 ft | 443 kts | 137° |
| 2026-05-05 13:04 | 12.14524 | 121.24865 | 30903 ft | 444 kts | 137° |
| 2026-05-05 13:04 | 12.10001 | 121.29189 | 30897 ft | 444 kts | 138° |
| 2026-05-05 13:05 | 12.05469 | 121.33518 | 30890 ft | 444 kts | 137° |
| 2026-05-05 13:05 | 12.00965 | 121.37815 | 30882 ft | 445 kts | 137° |
| 2026-05-05 13:06 | 11.96444 | 121.42130 | 30877 ft | 444 kts | 137° |
| 2026-05-05 13:06 | 11.91925 | 121.46439 | 30872 ft | 443 kts | 137° |
| 2026-05-05 13:07 | 11.87515 | 121.50643 | 30869 ft | 443 kts | 137° |
| 2026-05-05 13:07 | 11.82983 | 121.54962 | 30869 ft | 443 kts | 137° |
| 2026-05-05 13:08 | 11.78502 | 121.59230 | 30267 ft | 433 kts | 137° |
| 2026-05-05 13:08 | 11.76328 | 121.61298 | 28916 ft | 439 kts | 137° |
| 2026-05-05 13:08 | 11.74067 | 121.63448 | 27426 ft | 444 kts | 137° |
| 2026-05-05 13:09 | 11.71866 | 121.65543 | 26855 ft | 428 kts | 137° |
| 2026-05-05 13:09 | 11.69665 | 121.67637 | 26574 ft | 426 kts | 137° |
| 2026-05-05 13:09 | 11.67995 | 121.69226 | 26313 ft | 423 kts | 137° |
| 2026-05-05 13:09 | 11.66104 | 121.71026 | 25954 ft | 420 kts | 137° |
| 2026-05-05 13:10 | 11.63954 | 121.73069 | 25510 ft | 417 kts | 137° |
| 2026-05-05 13:10 | 11.61844 | 121.75073 | 25050 ft | 413 kts | 137° |
| 2026-05-05 13:10 | 11.59761 | 121.77052 | 24590 ft | 410 kts | 137° |
| 2026-05-05 13:10 | 11.57688 | 121.79021 | 24125 ft | 407 kts | 137° |
| 2026-05-05 13:11 | 11.55600 | 121.81004 | 23655 ft | 403 kts | 136° |
| 2026-05-05 13:11 | 11.53581 | 121.82922 | 23201 ft | 400 kts | 136° |
| 2026-05-05 13:11 | 11.51551 | 121.84849 | 22740 ft | 397 kts | 136° |
| 2026-05-05 13:11 | 11.49514 | 121.86782 | 22279 ft | 394 kts | 136° |
| 2026-05-05 13:12 | 11.47527 | 121.88668 | 21832 ft | 391 kts | 136° |
| 2026-05-05 13:12 | 11.45550 | 121.90543 | 21377 ft | 389 kts | 136° |
| 2026-05-05 13:12 | 11.43561 | 121.92429 | 20921 ft | 387 kts | 136° |
| 2026-05-05 13:12 | 11.41584 | 121.94305 | 20457 ft | 385 kts | 136° |
| 2026-05-05 13:13 | 11.39649 | 121.96139 | 19999 ft | 383 kts | 136° |
| 2026-05-05 13:13 | 11.37687 | 121.98000 | 19532 ft | 382 kts | 136° |
| 2026-05-05 13:13 | 11.35747 | 121.99840 | 19065 ft | 381 kts | 136° |
| 2026-05-05 13:13 | 11.33798 | 122.01687 | 18596 ft | 380 kts | 136° |
| 2026-05-05 13:14 | 11.31877 | 122.03508 | 18135 ft | 378 kts | 135° |
| 2026-05-05 13:14 | 11.29946 | 122.05337 | 17669 ft | 377 kts | 135° |
| 2026-05-05 13:14 | 11.28035 | 122.07148 | 17210 ft | 376 kts | 135° |
| 2026-05-05 13:14 | 11.26126 | 122.08956 | 16748 ft | 374 kts | 135° |
| 2026-05-05 13:15 | 11.24235 | 122.10748 | 16291 ft | 373 kts | 135° |
| 2026-05-05 13:15 | 11.22317 | 122.12566 | 15828 ft | 371 kts | 135° |
| 2026-05-05 13:15 | 11.20424 | 122.14359 | 15370 ft | 370 kts | 135° |
| 2026-05-05 13:15 | 11.18557 | 122.16126 | 14917 ft | 368 kts | 135° |
| 2026-05-05 13:16 | 11.16681 | 122.17902 | 14460 ft | 367 kts | 135° |
| 2026-05-05 13:16 | 11.14816 | 122.19667 | 14004 ft | 365 kts | 135° |
| 2026-05-05 13:16 | 11.12964 | 122.21420 | 13550 ft | 363 kts | 135° |
| 2026-05-05 13:16 | 11.11125 | 122.23160 | 13140 ft | 360 kts | 135° |
| 2026-05-05 13:17 | 11.09305 | 122.24880 | 12956 ft | 349 kts | 135° |
| 2026-05-05 13:17 | 11.07555 | 122.26534 | 12826 ft | 337 kts | 135° |
| 2026-05-05 13:17 | 11.05862 | 122.28133 | 12666 ft | 327 kts | 135° |
| 2026-05-05 13:17 | 11.04201 | 122.29695 | 12365 ft | 323 kts | 135° |
| 2026-05-05 13:18 | 11.02551 | 122.31244 | 12069 ft | 318 kts | 135° |
| 2026-05-05 13:18 | 11.00938 | 122.32758 | 11679 ft | 312 kts | 135° |
| 2026-05-05 13:18 | 10.99348 | 122.34250 | 11261 ft | 307 kts | 135° |
| 2026-05-05 13:18 | 10.97800 | 122.35702 | 10800 ft | 298 kts | 136° |
| 2026-05-05 13:19 | 10.96297 | 122.37112 | 10361 ft | 297 kts | 135° |
| 2026-05-05 13:19 | 10.94740 | 122.38507 | 9926 ft | 298 kts | 143° |
| 2026-05-05 13:19 | 10.92797 | 122.39269 | 9482 ft | 304 kts | 173° |
| 2026-05-05 13:19 | 10.90697 | 122.38983 | 9109 ft | 306 kts | 194° |
| 2026-05-05 13:20 | 10.88715 | 122.38393 | 8742 ft | 306 kts | 194° |
| 2026-05-05 13:20 | 10.86633 | 122.37794 | 8456 ft | 301 kts | 193° |
| 2026-05-05 13:20 | 10.84610 | 122.37227 | 8170 ft | 298 kts | 193° |
| 2026-05-05 13:20 | 10.82595 | 122.36672 | 7722 ft | 301 kts | 193° |
| 2026-05-05 13:21 | 10.80574 | 122.36120 | 7458 ft | 296 kts | 193° |
| 2026-05-05 13:21 | 10.78596 | 122.35582 | 7185 ft | 290 kts | 193° |
| 2026-05-05 13:21 | 10.76644 | 122.35051 | 6731 ft | 284 kts | 192° |
| 2026-05-05 13:21 | 10.74761 | 122.34541 | 6254 ft | 280 kts | 192° |
| 2026-05-05 13:22 | 10.72875 | 122.34031 | 5861 ft | 278 kts | 192° |
| 2026-05-05 13:22 | 10.70994 | 122.33524 | 5494 ft | 279 kts | 192° |
| 2026-05-05 13:22 | 10.69113 | 122.33018 | 5233 ft | 275 kts | 191° |
| 2026-05-05 13:22 | 10.67244 | 122.32915 | 5028 ft | 262 kts | 162° |
| 2026-05-05 13:23 | 10.65749 | 122.33810 | 4814 ft | 249 kts | 127° |
| 2026-05-05 13:23 | 10.65002 | 122.35365 | 4520 ft | 243 kts | 104° |
| 2026-05-05 13:23 | 10.64520 | 122.37027 | 4215 ft | 244 kts | 105° |
| 2026-05-05 13:23 | 10.63997 | 122.38669 | 3906 ft | 245 kts | 107° |
| 2026-05-05 13:24 | 10.63569 | 122.40333 | 3536 ft | 243 kts | 90° |
| 2026-05-05 13:24 | 10.64028 | 122.41904 | 3240 ft | 231 kts | 51° |
| 2026-05-05 13:24 | 10.65288 | 122.42817 | 3181 ft | 218 kts | 22° |
| 2026-05-05 13:24 | 10.66735 | 122.43282 | 3131 ft | 214 kts | 20° |
| 2026-05-05 13:25 | 10.68094 | 122.43739 | 3067 ft | 199 kts | 21° |
| 2026-05-05 13:25 | 10.69356 | 122.44182 | 2866 ft | 182 kts | 22° |
| 2026-05-05 13:25 | 10.70500 | 122.44594 | 2699 ft | 166 kts | 22° |
| 2026-05-05 13:25 | 10.71569 | 122.44984 | 2390 ft | 157 kts | 22° |
| 2026-05-05 13:26 | 10.72550 | 122.45345 | 2148 ft | 146 kts | 23° |
| 2026-05-05 13:26 | 10.73504 | 122.45699 | 1955 ft | 145 kts | 23° |
| 2026-05-05 13:26 | 10.74455 | 122.46052 | 1765 ft | 144 kts | 23° |
| 2026-05-05 13:26 | 10.75405 | 122.46405 | 1571 ft | 144 kts | 23° |
| 2026-05-05 13:27 | 10.76344 | 122.46753 | 1377 ft | 143 kts | 22° |
| 2026-05-05 13:27 | 10.77287 | 122.47102 | 1186 ft | 143 kts | 22° |
| 2026-05-05 13:27 | 10.78223 | 122.47448 | 996 ft | 142 kts | 22° |
| 2026-05-05 13:27 | 10.79162 | 122.47807 | 794 ft | 143 kts | 23° |
| 2026-05-05 13:28 | 10.80090 | 122.48164 | 628 ft | 143 kts | 23° |
| 2026-05-05 13:28 | 10.81035 | 122.48508 | 448 ft | 142 kts | 22° |
| 2026-05-05 13:28 | 10.81985 | 122.48850 | 270 ft | 142 kts | 21° |
| 2026-05-05 13:28 | 10.82890 | 122.49185 | 176 ft | 129 kts | 21° |
| 2026-05-05 13:29 | 10.83450 | 122.49392 | 176 ft | 28 kts | 21° |
| 2026-05-05 13:29 | 10.83517 | 122.49417 | 176 ft | 9 kts | 20° |
| 2026-05-05 13:29 | 10.83556 | 122.49468 | 176 ft | 9 kts | 85° |
| 2026-05-05 13:29 | 10.83537 | 122.49537 | 175 ft | 10 kts | 110° |
| 2026-05-05 13:30 | 10.83511 | 122.49609 | 175 ft | 11 kts | 109° |
| 2026-05-05 13:30 | 10.83469 | 122.49673 | 175 ft | 11 kts | 158° |
| 2026-05-05 13:30 | 10.83391 | 122.49661 | 175 ft | 11 kts | 200° |
| 2026-05-05 13:30 | 10.83313 | 122.49631 | 175 ft | 12 kts | 199° |
| 2026-05-05 13:31 | 10.83230 | 122.49601 | 175 ft | 12 kts | 200° |
| 2026-05-05 13:31 | 10.83155 | 122.49574 | 175 ft | 8 kts | 187° |
| 2026-05-05 13:31 | 10.83126 | 122.49616 | 175 ft | 8 kts | 109° |
| 2026-05-05 13:31 | 10.83115 | 122.49644 | 175 ft | 1 kts | 110° |
| 2026-05-05 13:32 | 10.83114 | 122.49647 | 175 ft | 0 kts | 110° |